createdAt,value
2017-10-22T00:00:32.954Z,978.75
2017-10-22T00:01:32.898Z,978.69
2017-10-22T00:02:32.937Z,978.70
2017-10-22T00:03:32.976Z,978.70
2017-10-22T00:04:33.003Z,978.70
2017-10-22T00:05:33.040Z,978.65
2017-10-22T00:06:33.074Z,978.66
2017-10-22T00:07:33.108Z,978.65
2017-10-22T00:08:33.146Z,978.65
2017-10-22T00:09:33.183Z,978.60
2017-10-22T00:10:33.218Z,978.65
2017-10-22T00:11:33.252Z,978.60
2017-10-22T00:12:33.287Z,978.64
2017-10-22T00:13:33.330Z,978.67
2017-10-22T00:14:33.359Z,978.61
2017-10-22T00:15:33.394Z,978.69
2017-10-22T00:16:33.429Z,978.64
2017-10-22T00:17:33.469Z,978.64
2017-10-22T00:18:33.506Z,978.68
2017-10-22T00:19:33.555Z,978.67
2017-10-22T00:20:33.606Z,978.65
2017-10-22T00:21:33.606Z,978.66
2017-10-22T00:22:33.643Z,978.59
2017-10-22T00:23:33.679Z,978.55
2017-10-22T00:24:33.713Z,978.54
2017-10-22T00:25:33.750Z,978.46
2017-10-22T00:26:33.785Z,978.48
2017-10-22T00:27:33.822Z,978.44
2017-10-22T00:28:33.863Z,978.44
2017-10-22T00:29:33.892Z,978.40
2017-10-22T00:30:33.930Z,978.31
2017-10-22T00:31:33.963Z,978.34
2017-10-22T00:32:33.997Z,978.29
2017-10-22T00:33:34.036Z,978.28
2017-10-22T00:34:34.069Z,978.33
2017-10-22T00:35:34.106Z,978.26
2017-10-22T00:36:34.188Z,978.22
2017-10-22T00:37:34.175Z,978.23
2017-10-22T00:38:34.211Z,978.18
2017-10-22T00:39:34.251Z,978.18
2017-10-22T00:40:34.284Z,978.18
2017-10-22T00:41:34.319Z,978.15
2017-10-22T00:42:34.356Z,978.19
2017-10-22T00:43:34.392Z,978.17
2017-10-22T00:44:34.424Z,978.14
2017-10-22T00:45:34.460Z,978.13
2017-10-22T00:46:34.503Z,978.15
2017-10-22T00:47:34.534Z,978.15
2017-10-22T00:48:34.569Z,978.13
2017-10-22T00:49:34.604Z,978.13
2017-10-22T00:50:34.641Z,978.09
2017-10-22T00:51:34.675Z,978.10
2017-10-22T00:52:34.710Z,978.10
2017-10-22T00:53:34.750Z,978.11
2017-10-22T00:54:34.783Z,978.13
2017-10-22T00:55:34.814Z,978.09
2017-10-22T00:56:34.853Z,978.03
2017-10-22T00:57:34.887Z,978.04
2017-10-22T00:58:34.923Z,977.99
2017-10-22T00:59:34.964Z,977.98
2017-10-22T01:00:34.994Z,977.94
2017-10-22T01:01:35.031Z,977.87
2017-10-22T01:02:35.068Z,977.81
2017-10-22T01:03:35.100Z,977.78
2017-10-22T01:04:35.138Z,977.75
2017-10-22T01:05:35.172Z,977.71
2017-10-22T01:06:35.209Z,977.70
2017-10-22T01:07:35.243Z,977.70
2017-10-22T01:08:35.277Z,977.79
2017-10-22T01:09:35.315Z,977.85
2017-10-22T01:10:35.350Z,977.96
2017-10-22T01:11:35.384Z,977.98
2017-10-22T01:12:35.430Z,978.02
2017-10-22T01:13:35.459Z,978.01
2017-10-22T01:14:35.489Z,977.97
2017-10-22T01:15:35.524Z,977.95
2017-10-22T01:16:35.561Z,977.92
2017-10-22T01:17:35.776Z,977.92
2017-10-22T01:18:35.631Z,977.92
2017-10-22T01:19:35.674Z,977.96
2017-10-22T01:20:35.700Z,978.01
2017-10-22T01:21:35.737Z,978.01
2017-10-22T01:22:35.774Z,977.98
2017-10-22T01:23:35.809Z,978.01
2017-10-22T01:24:35.844Z,978.00
2017-10-22T01:25:35.880Z,977.90
2017-10-22T01:26:35.917Z,977.90
2017-10-22T01:27:35.956Z,977.94
2017-10-22T01:28:35.988Z,977.96
2017-10-22T01:29:36.028Z,977.98
2017-10-22T01:30:36.056Z,977.99
2017-10-22T01:31:36.093Z,977.99
2017-10-22T01:32:36.131Z,978.00
2017-10-22T01:33:36.164Z,977.99
2017-10-22T01:34:36.202Z,978.06
2017-10-22T01:35:36.238Z,978.05
2017-10-22T01:36:36.271Z,978.14
2017-10-22T01:37:36.303Z,978.16
2017-10-22T01:38:36.344Z,978.18
2017-10-22T01:39:36.375Z,978.25
2017-10-22T01:40:36.410Z,978.26
2017-10-22T01:41:36.446Z,978.32
2017-10-22T01:42:36.479Z,978.31
2017-10-22T01:43:36.513Z,978.29
2017-10-22T01:44:36.553Z,978.31
2017-10-22T01:45:36.587Z,978.31
2017-10-22T01:46:36.622Z,978.26
2017-10-22T01:47:36.661Z,978.34
2017-10-22T01:48:36.693Z,978.36
2017-10-22T01:49:36.728Z,978.36
2017-10-22T01:50:36.764Z,978.39
2017-10-22T01:51:36.797Z,978.38
2017-10-22T01:52:36.840Z,978.41
2017-10-22T01:53:36.869Z,978.43
2017-10-22T01:54:36.908Z,978.42
2017-10-22T01:55:36.940Z,978.45
2017-10-22T01:56:36.977Z,978.50
2017-10-22T01:57:37.013Z,978.55
2017-10-22T01:58:37.046Z,978.46
2017-10-22T01:59:37.080Z,978.53
2017-10-22T02:00:37.119Z,978.65
2017-10-22T02:01:37.152Z,978.68
2017-10-22T02:02:37.189Z,978.68
2017-10-22T02:03:37.221Z,978.75
2017-10-22T02:04:37.258Z,978.79
2017-10-22T02:05:37.294Z,978.75
2017-10-22T02:06:37.329Z,978.81
2017-10-22T02:07:37.361Z,978.79
2017-10-22T02:08:37.396Z,978.75
2017-10-22T02:09:37.432Z,978.76
2017-10-22T02:10:37.472Z,978.81
2017-10-22T02:11:37.501Z,978.82
2017-10-22T02:12:37.542Z,978.85
2017-10-22T02:13:37.580Z,978.81
2017-10-22T02:14:37.608Z,978.82
2017-10-22T02:15:37.645Z,978.85
2017-10-22T02:16:37.677Z,978.85
2017-10-22T02:17:37.714Z,978.88
2017-10-22T02:18:37.751Z,978.84
2017-10-22T02:19:37.783Z,978.85
2017-10-22T02:20:37.817Z,978.86
2017-10-22T02:21:37.857Z,978.80
2017-10-22T02:22:37.888Z,978.79
2017-10-22T02:23:37.923Z,978.80
2017-10-22T02:24:37.958Z,978.75
2017-10-22T02:25:37.993Z,978.79
2017-10-22T02:26:38.026Z,978.84
2017-10-22T02:27:38.061Z,978.78
2017-10-22T02:28:38.096Z,978.69
2017-10-22T02:29:38.131Z,978.70
2017-10-22T02:30:38.174Z,978.70
2017-10-22T02:31:38.205Z,978.64
2017-10-22T02:32:38.236Z,978.73
2017-10-22T02:33:38.271Z,978.72
2017-10-22T02:34:38.306Z,978.66
2017-10-22T02:35:38.341Z,978.61
2017-10-22T02:36:38.380Z,978.61
2017-10-22T02:37:38.412Z,978.61
2017-10-22T02:38:38.456Z,978.57
2017-10-22T02:39:38.498Z,978.57
2017-10-22T02:40:38.515Z,978.56
2017-10-22T02:41:38.549Z,978.53
2017-10-22T02:42:38.588Z,978.49
2017-10-22T02:43:38.630Z,978.49
2017-10-22T02:44:38.654Z,978.50
2017-10-22T02:45:38.689Z,978.55
2017-10-22T02:46:38.724Z,978.48
2017-10-22T02:47:38.762Z,978.52
2017-10-22T02:48:38.795Z,978.45
2017-10-22T02:49:38.831Z,978.52
2017-10-22T02:50:38.867Z,978.50
2017-10-22T02:51:38.896Z,978.47
2017-10-22T02:52:38.936Z,978.49
2017-10-22T02:53:38.968Z,978.51
2017-10-22T02:54:39.008Z,978.52
2017-10-22T02:55:39.038Z,978.56
2017-10-22T02:56:39.070Z,978.51
2017-10-22T02:57:39.105Z,978.57
2017-10-22T02:58:39.155Z,978.57
2017-10-22T02:59:39.174Z,978.54
2017-10-22T03:00:39.209Z,978.52
2017-10-22T03:01:39.245Z,978.49
2017-10-22T03:02:39.280Z,978.46
2017-10-22T03:03:39.320Z,978.45
2017-10-22T03:04:39.351Z,978.42
2017-10-22T03:05:39.390Z,978.47
2017-10-22T03:06:39.418Z,978.43
2017-10-22T03:07:39.457Z,978.41
2017-10-22T03:08:39.501Z,978.41
2017-10-22T03:09:39.522Z,978.39
2017-10-22T03:10:39.558Z,978.48
2017-10-22T03:11:39.603Z,978.43
2017-10-22T03:12:39.624Z,978.44
2017-10-22T03:13:39.660Z,978.43
2017-10-22T03:14:39.695Z,978.44
2017-10-22T03:15:39.740Z,978.46
2017-10-22T03:16:39.777Z,978.44
2017-10-22T03:17:39.805Z,978.38
2017-10-22T03:18:39.833Z,978.34
2017-10-22T03:19:39.871Z,978.33
2017-10-22T03:20:39.902Z,978.29
2017-10-22T03:21:39.945Z,978.32
2017-10-22T03:22:39.971Z,978.35
2017-10-22T03:23:40.007Z,978.44
2017-10-22T03:24:40.042Z,978.53
2017-10-22T03:25:40.075Z,978.52
2017-10-22T03:26:40.119Z,978.53
2017-10-22T03:27:40.159Z,978.54
2017-10-22T03:28:40.184Z,978.54
2017-10-22T03:29:40.218Z,978.50
2017-10-22T03:30:40.257Z,978.49
2017-10-22T03:31:40.283Z,978.52
2017-10-22T03:32:40.320Z,978.53
2017-10-22T03:33:40.353Z,978.48
2017-10-22T03:34:40.386Z,978.56
2017-10-22T03:35:40.423Z,978.56
2017-10-22T03:36:40.456Z,978.54
2017-10-22T03:37:40.495Z,978.53
2017-10-22T03:38:40.535Z,978.53
2017-10-22T03:39:40.566Z,978.56
2017-10-22T03:40:40.595Z,978.55
2017-10-22T03:41:40.631Z,978.57
2017-10-22T03:42:40.664Z,978.52
2017-10-22T03:43:40.697Z,978.52
2017-10-22T03:44:40.732Z,978.52
2017-10-22T03:45:40.773Z,978.53
2017-10-22T03:46:40.803Z,978.46
2017-10-22T03:47:40.847Z,978.43
2017-10-22T03:48:40.874Z,978.47
2017-10-22T03:49:40.913Z,978.43
2017-10-22T03:50:40.942Z,978.46
2017-10-22T03:51:40.977Z,978.48
2017-10-22T03:52:41.010Z,978.44
2017-10-22T03:53:41.052Z,978.41
2017-10-22T03:54:41.080Z,978.40
2017-10-22T03:55:41.126Z,978.42
2017-10-22T03:56:41.148Z,978.49
2017-10-22T03:57:41.184Z,978.47
2017-10-22T03:58:41.218Z,978.51
2017-10-22T03:59:41.266Z,978.51
2017-10-22T04:00:41.295Z,978.51
2017-10-22T04:01:41.321Z,978.51
2017-10-22T04:02:41.359Z,978.51
2017-10-22T04:03:41.396Z,978.50
2017-10-22T04:04:41.425Z,978.44
2017-10-22T04:05:41.460Z,978.39
2017-10-22T04:06:41.495Z,978.37
2017-10-22T04:07:41.528Z,978.31
2017-10-22T04:08:41.564Z,978.25
2017-10-22T04:09:41.600Z,978.21
2017-10-22T04:10:41.636Z,978.17
2017-10-22T04:11:41.669Z,978.13
2017-10-22T04:12:41.707Z,978.06
2017-10-22T04:13:41.736Z,978.07
2017-10-22T04:14:41.775Z,978.05
2017-10-22T04:15:41.804Z,978.09
2017-10-22T04:16:41.840Z,978.03
2017-10-22T04:17:41.887Z,978.08
2017-10-22T04:18:41.907Z,978.02
2017-10-22T04:19:41.943Z,978.01
2017-10-22T04:20:41.985Z,977.98
2017-10-22T04:21:42.012Z,977.98
2017-10-22T04:22:42.048Z,978.00
2017-10-22T04:23:42.082Z,977.96
2017-10-22T04:24:42.116Z,977.96
2017-10-22T04:25:42.153Z,977.95
2017-10-22T04:26:42.191Z,977.94
2017-10-22T04:27:42.221Z,977.94
2017-10-22T04:28:42.257Z,977.94
2017-10-22T04:29:42.294Z,977.96
2017-10-22T04:30:42.333Z,977.93
2017-10-22T04:31:42.364Z,977.94
2017-10-22T04:32:42.400Z,977.99
2017-10-22T04:33:42.428Z,978.00
2017-10-22T04:34:42.461Z,978.03
2017-10-22T04:35:42.504Z,978.05
2017-10-22T04:36:42.536Z,978.02
2017-10-22T04:37:42.568Z,978.08
2017-10-22T04:38:42.601Z,978.07
2017-10-22T04:39:42.636Z,978.08
2017-10-22T04:40:42.669Z,978.10
2017-10-22T04:41:42.705Z,978.16
2017-10-22T04:42:42.742Z,978.18
2017-10-22T04:43:42.773Z,978.13
2017-10-22T04:44:42.816Z,978.06
2017-10-22T04:45:42.841Z,978.09
2017-10-22T04:46:42.876Z,978.07
2017-10-22T04:47:42.913Z,978.09
2017-10-22T04:48:42.948Z,978.02
2017-10-22T04:49:42.986Z,978.00
2017-10-22T04:50:43.015Z,977.94
2017-10-22T04:51:43.048Z,977.93
2017-10-22T04:52:43.084Z,977.87
2017-10-22T04:53:43.119Z,977.88
2017-10-22T04:54:43.150Z,977.85
2017-10-22T04:55:43.190Z,977.92
2017-10-22T04:56:43.220Z,977.91
2017-10-22T04:57:43.260Z,977.89
2017-10-22T04:58:43.291Z,977.92
2017-10-22T04:59:43.330Z,977.89
2017-10-22T05:00:43.357Z,977.87
2017-10-22T05:01:43.393Z,977.89
2017-10-22T05:02:43.430Z,977.95
2017-10-22T05:03:43.466Z,977.95
2017-10-22T05:04:43.494Z,977.88
2017-10-22T05:05:43.534Z,977.94
2017-10-22T05:06:43.568Z,977.95
2017-10-22T05:07:43.595Z,977.95
2017-10-22T05:08:43.630Z,977.93
2017-10-22T05:09:43.665Z,977.98
2017-10-22T05:10:43.700Z,977.97
2017-10-22T05:11:43.733Z,978.02
2017-10-22T05:12:43.768Z,978.00
2017-10-22T05:13:43.805Z,977.99
2017-10-22T05:14:43.841Z,978.01
2017-10-22T05:15:43.869Z,978.00
2017-10-22T05:16:43.908Z,977.95
2017-10-22T05:17:43.938Z,977.94
2017-10-22T05:18:43.981Z,977.99
2017-10-22T05:19:44.010Z,977.94
2017-10-22T05:20:44.040Z,977.95
2017-10-22T05:21:44.075Z,977.85
2017-10-22T05:22:44.111Z,977.86
2017-10-22T05:23:44.147Z,977.78
2017-10-22T05:24:44.178Z,977.81
2017-10-22T05:25:44.211Z,977.81
2017-10-22T05:26:44.246Z,977.76
2017-10-22T05:27:44.281Z,977.74
2017-10-22T05:28:44.317Z,977.77
2017-10-22T05:29:44.352Z,977.80
2017-10-22T05:30:44.381Z,977.77
2017-10-22T05:31:44.417Z,977.78
2017-10-22T05:32:44.447Z,977.76
2017-10-22T05:33:44.481Z,977.76
2017-10-22T05:34:44.517Z,977.74
2017-10-22T05:35:44.549Z,977.76
2017-10-22T05:36:44.587Z,977.72
2017-10-22T05:37:44.616Z,977.79
2017-10-22T05:38:44.652Z,977.82
2017-10-22T05:39:44.686Z,977.79
2017-10-22T05:40:44.725Z,977.87
2017-10-22T05:41:44.763Z,977.83
2017-10-22T05:42:44.786Z,977.88
2017-10-22T05:43:44.824Z,977.84
2017-10-22T05:44:44.861Z,977.87
2017-10-22T05:45:44.893Z,977.92
2017-10-22T05:46:44.924Z,977.98
2017-10-22T05:47:44.966Z,977.99
2017-10-22T05:48:44.999Z,978.03
2017-10-22T05:49:45.025Z,978.07
2017-10-22T05:50:45.058Z,978.02
2017-10-22T05:51:45.092Z,978.06
2017-10-22T05:52:45.131Z,978.03
2017-10-22T05:53:45.165Z,978.03
2017-10-22T05:54:45.194Z,978.09
2017-10-22T05:55:45.228Z,978.12
2017-10-22T05:56:45.266Z,978.08
2017-10-22T05:57:45.297Z,978.09
2017-10-22T05:58:45.329Z,978.13
2017-10-22T05:59:45.362Z,978.18
2017-10-22T06:00:45.399Z,978.22
2017-10-22T06:01:45.432Z,978.19
2017-10-22T06:02:45.465Z,978.23
2017-10-22T06:03:45.497Z,978.25
2017-10-22T06:04:45.531Z,978.23
2017-10-22T06:05:45.565Z,978.27
2017-10-22T06:06:45.604Z,978.33
2017-10-22T06:07:45.636Z,978.34
2017-10-22T06:08:45.667Z,978.28
2017-10-22T06:09:45.700Z,978.32
2017-10-22T06:10:45.735Z,978.29
2017-10-22T06:11:45.767Z,978.33
2017-10-22T06:12:45.806Z,978.36
2017-10-22T06:13:45.840Z,978.28
2017-10-22T06:14:45.871Z,978.30
2017-10-22T06:15:45.903Z,978.32
2017-10-22T06:16:45.936Z,978.33
2017-10-22T06:17:45.973Z,978.29
2017-10-22T06:18:46.004Z,978.29
2017-10-22T06:19:46.039Z,978.21
2017-10-22T06:20:46.074Z,978.19
2017-10-22T06:21:46.106Z,978.14
2017-10-22T06:22:46.140Z,978.10
2017-10-22T06:23:46.173Z,978.09
2017-10-22T06:24:46.208Z,978.06
2017-10-22T06:25:46.252Z,978.02
2017-10-22T06:26:46.273Z,978.12
2017-10-22T06:27:46.310Z,978.10
2017-10-22T06:28:46.344Z,978.15
2017-10-22T06:29:46.377Z,978.11
2017-10-22T06:30:46.409Z,978.16
2017-10-22T06:31:46.441Z,978.16
2017-10-22T06:32:46.478Z,978.18
2017-10-22T06:33:46.515Z,978.24
2017-10-22T06:34:46.544Z,978.24
2017-10-22T06:35:46.579Z,978.24
2017-10-22T06:36:46.612Z,978.21
2017-10-22T06:37:46.653Z,978.30
2017-10-22T06:38:46.680Z,978.36
2017-10-22T06:39:46.716Z,978.43
2017-10-22T06:40:46.747Z,978.61
2017-10-22T06:41:46.782Z,978.71
2017-10-22T06:42:46.823Z,978.74
2017-10-22T06:43:46.845Z,978.70
2017-10-22T06:44:46.883Z,978.67
2017-10-22T06:45:46.917Z,978.70
2017-10-22T06:46:46.955Z,978.79
2017-10-22T06:47:47.004Z,978.86
2017-10-22T06:48:47.037Z,978.90
2017-10-22T06:49:47.053Z,978.97
2017-10-22T06:50:47.086Z,978.97
2017-10-22T06:51:47.116Z,978.99
2017-10-22T06:52:47.152Z,978.98
2017-10-22T06:53:47.187Z,978.93
2017-10-22T06:54:47.232Z,978.81
2017-10-22T06:55:47.257Z,978.71
2017-10-22T06:56:47.289Z,978.66
2017-10-22T06:57:47.321Z,978.66
2017-10-22T06:58:47.360Z,978.60
2017-10-22T06:59:47.390Z,978.59
2017-10-22T07:00:47.428Z,978.51
2017-10-22T07:01:47.517Z,978.55
2017-10-22T07:02:47.491Z,978.50
2017-10-22T07:03:47.537Z,978.46
2017-10-22T07:04:47.561Z,978.40
2017-10-22T07:05:47.594Z,978.40
2017-10-22T07:06:47.627Z,978.42
2017-10-22T07:07:47.666Z,978.41
2017-10-22T07:08:47.700Z,978.41
2017-10-22T07:09:47.728Z,978.35
2017-10-22T07:10:47.764Z,978.39
2017-10-22T07:11:47.809Z,978.37
2017-10-22T07:12:47.830Z,978.41
2017-10-22T07:13:47.865Z,978.38
2017-10-22T07:14:47.898Z,978.38
2017-10-22T07:15:47.930Z,978.39
2017-10-22T07:16:47.968Z,978.43
2017-10-22T07:17:48.001Z,978.49
2017-10-22T07:18:48.040Z,978.48
2017-10-22T07:19:48.069Z,978.47
2017-10-22T07:20:48.103Z,978.44
2017-10-22T07:21:48.137Z,978.48
2017-10-22T07:22:48.172Z,978.48
2017-10-22T07:23:48.208Z,978.42
2017-10-22T07:24:48.248Z,978.41
2017-10-22T07:25:48.297Z,978.43
2017-10-22T07:26:48.311Z,978.42
2017-10-22T07:27:48.341Z,978.44
2017-10-22T07:28:48.374Z,978.40
2017-10-22T07:29:48.409Z,978.38
2017-10-22T07:30:48.443Z,978.38
2017-10-22T07:31:48.478Z,978.34
2017-10-22T07:32:48.515Z,978.35
2017-10-22T07:33:48.552Z,978.38
2017-10-22T07:34:48.585Z,978.34
2017-10-22T07:35:48.616Z,978.29
2017-10-22T07:36:48.660Z,978.31
2017-10-22T07:37:48.688Z,978.33
2017-10-22T07:38:48.724Z,978.35
2017-10-22T07:39:48.751Z,978.33
2017-10-22T07:40:48.786Z,978.30
2017-10-22T07:41:48.824Z,978.28
2017-10-22T07:42:48.862Z,978.31
2017-10-22T07:43:48.891Z,978.31
2017-10-22T07:44:48.924Z,978.27
2017-10-22T07:45:48.964Z,978.26
2017-10-22T07:46:48.996Z,978.28
2017-10-22T07:47:49.034Z,978.33
2017-10-22T07:48:49.072Z,978.34
2017-10-22T07:49:49.097Z,978.29
2017-10-22T07:50:49.132Z,978.30
2017-10-22T07:51:49.168Z,978.30
2017-10-22T07:52:49.208Z,978.31
2017-10-22T07:53:49.242Z,978.27
2017-10-22T07:54:49.273Z,978.30
2017-10-22T07:55:49.307Z,978.24
2017-10-22T07:56:49.341Z,978.19
2017-10-22T07:57:49.377Z,978.25
2017-10-22T07:58:49.418Z,978.20
2017-10-22T07:59:49.451Z,978.16
2017-10-22T08:00:49.477Z,978.21
2017-10-22T08:01:49.513Z,978.14
2017-10-22T08:02:49.554Z,978.10
2017-10-22T08:03:49.616Z,978.11
2017-10-22T08:04:49.624Z,978.04
2017-10-22T08:05:49.655Z,978.06
2017-10-22T08:06:49.687Z,978.07
2017-10-22T08:07:49.731Z,978.00
2017-10-22T08:08:49.759Z,978.08
2017-10-22T08:09:49.802Z,978.09
2017-10-22T08:10:49.824Z,978.14
2017-10-22T08:11:49.867Z,978.20
2017-10-22T08:12:49.895Z,978.18
2017-10-22T08:13:49.930Z,978.15
2017-10-22T08:14:49.977Z,978.16
2017-10-22T08:15:50.017Z,978.07
2017-10-22T08:16:50.034Z,978.01
2017-10-22T08:17:50.072Z,978.01
2017-10-22T08:18:50.108Z,978.09
2017-10-22T08:19:50.146Z,978.05
2017-10-22T08:20:50.183Z,978.05
2017-10-22T08:21:50.211Z,978.09
2017-10-22T08:22:50.244Z,978.04
2017-10-22T08:23:50.280Z,978.03
2017-10-22T08:24:50.314Z,977.89
2017-10-22T08:25:50.355Z,977.89
2017-10-22T08:26:50.384Z,977.83
2017-10-22T08:27:50.421Z,977.84
2017-10-22T08:28:50.462Z,977.86
2017-10-22T08:29:50.487Z,977.92
2017-10-22T08:30:50.523Z,978.02
2017-10-22T08:31:50.560Z,978.02
2017-10-22T08:32:50.600Z,978.04
2017-10-22T08:33:50.633Z,978.05
2017-10-22T08:34:50.664Z,978.04
2017-10-22T08:35:50.706Z,978.03
2017-10-22T08:36:50.738Z,978.04
2017-10-22T08:37:50.772Z,978.07
2017-10-22T08:38:50.806Z,978.03
2017-10-22T08:39:50.846Z,978.03
2017-10-22T08:40:50.878Z,977.99
2017-10-22T08:41:50.911Z,977.99
2017-10-22T08:42:50.947Z,978.00
2017-10-22T08:43:50.981Z,978.01
2017-10-22T08:44:51.014Z,978.01
2017-10-22T08:45:51.054Z,978.06
2017-10-22T08:46:51.085Z,977.93
2017-10-22T08:47:51.120Z,978.01
2017-10-22T08:48:51.155Z,978.00
2017-10-22T08:49:51.195Z,978.00
2017-10-22T08:50:51.228Z,977.99
2017-10-22T08:51:51.263Z,977.95
2017-10-22T08:52:51.296Z,978.00
2017-10-22T08:53:51.332Z,977.95
2017-10-22T08:54:51.366Z,977.96
2017-10-22T08:55:51.404Z,977.93
2017-10-22T08:56:51.434Z,977.91
2017-10-22T08:57:51.474Z,977.96
2017-10-22T08:58:51.506Z,977.90
2017-10-22T08:59:51.540Z,977.89
2017-10-22T09:00:51.574Z,977.93
2017-10-22T09:01:51.613Z,977.83
2017-10-22T09:02:51.643Z,977.89
2017-10-22T09:03:51.681Z,977.93
2017-10-22T09:04:51.715Z,977.92
2017-10-22T09:05:51.748Z,977.83
2017-10-22T09:06:51.784Z,977.80
2017-10-22T09:07:51.820Z,977.78
2017-10-22T09:08:51.853Z,977.78
2017-10-22T09:09:51.893Z,977.78
2017-10-22T09:10:51.925Z,977.77
2017-10-22T09:11:51.959Z,977.76
2017-10-22T09:12:51.996Z,977.84
2017-10-22T09:13:52.028Z,977.76
2017-10-22T09:14:52.068Z,977.81
2017-10-22T09:15:52.096Z,977.77
2017-10-22T09:16:52.130Z,977.80
2017-10-22T09:17:52.169Z,977.80
2017-10-22T09:18:52.201Z,977.80
2017-10-22T09:19:52.237Z,977.77
2017-10-22T09:20:52.276Z,977.71
2017-10-22T09:21:52.308Z,977.87
2017-10-22T09:22:52.342Z,977.73
2017-10-22T09:23:52.380Z,977.83
2017-10-22T09:24:52.411Z,977.75
2017-10-22T09:25:52.449Z,977.83
2017-10-22T09:26:52.483Z,977.76
2017-10-22T09:27:52.518Z,977.79
2017-10-22T09:28:52.562Z,977.87
2017-10-22T09:29:52.596Z,977.80
2017-10-22T09:30:52.627Z,977.84
2017-10-22T09:31:52.658Z,977.91
2017-10-22T09:32:52.694Z,977.88
2017-10-22T09:33:52.730Z,977.84
2017-10-22T09:34:52.764Z,977.80
2017-10-22T09:35:52.820Z,977.85
2017-10-22T09:36:52.842Z,977.79
2017-10-22T09:37:52.873Z,977.89
2017-10-22T09:38:52.909Z,977.84
2017-10-22T09:39:52.942Z,977.91
2017-10-22T09:40:52.982Z,977.85
2017-10-22T09:41:53.011Z,977.90
2017-10-22T09:42:53.047Z,977.86
2017-10-22T09:43:53.095Z,977.91
2017-10-22T09:44:53.122Z,977.88
2017-10-22T09:45:53.155Z,977.87
2017-10-22T09:46:53.194Z,977.89
2017-10-22T09:47:53.301Z,977.91
2017-10-22T09:48:53.264Z,977.86
2017-10-22T09:49:53.300Z,977.87
2017-10-22T09:50:53.336Z,977.85
2017-10-22T09:51:53.375Z,977.83
2017-10-22T09:52:53.405Z,977.99
2017-10-22T09:53:53.445Z,977.93
2017-10-22T09:54:53.480Z,977.87
2017-10-22T09:55:53.521Z,978.00
2017-10-22T09:56:53.550Z,977.87
2017-10-22T09:57:53.587Z,977.86
2017-10-22T09:58:53.634Z,977.86
2017-10-22T09:59:53.660Z,977.78
2017-10-22T10:00:53.697Z,977.76
2017-10-22T10:01:53.732Z,977.82
2017-10-22T10:02:53.779Z,977.84
2017-10-22T10:03:53.807Z,977.76
2017-10-22T10:04:53.839Z,977.87
2017-10-22T10:05:53.877Z,977.80
2017-10-22T10:06:53.914Z,977.81
2017-10-22T10:07:53.979Z,977.86
2017-10-22T10:08:53.989Z,977.76
2017-10-22T10:09:54.026Z,977.72
2017-10-22T10:10:54.057Z,977.77
2017-10-22T10:11:54.095Z,977.72
2017-10-22T10:12:54.137Z,977.83
2017-10-22T10:13:54.169Z,977.82
2017-10-22T10:14:54.210Z,977.75
2017-10-22T10:15:54.241Z,977.79
2017-10-22T10:16:54.309Z,977.70
2017-10-22T10:17:54.312Z,977.67
2017-10-22T10:18:54.348Z,977.71
2017-10-22T10:19:54.386Z,977.69
2017-10-22T10:20:54.427Z,977.68
2017-10-22T10:21:54.461Z,977.60
2017-10-22T10:22:54.498Z,977.66
2017-10-22T10:23:54.535Z,977.61
2017-10-22T10:24:54.572Z,977.65
2017-10-22T10:25:54.611Z,977.62
2017-10-22T10:26:54.651Z,977.60
2017-10-22T10:27:54.677Z,977.65
2017-10-22T10:28:54.713Z,977.71
2017-10-22T10:29:54.750Z,977.66
2017-10-22T10:30:54.783Z,977.60
2017-10-22T10:31:54.822Z,977.58
2017-10-22T10:32:54.861Z,977.68
2017-10-22T10:33:54.896Z,977.63
2017-10-22T10:34:54.928Z,977.55
2017-10-22T10:35:54.965Z,977.49
2017-10-22T10:36:55.001Z,977.65
2017-10-22T10:37:55.040Z,977.60
2017-10-22T10:38:55.075Z,977.53
2017-10-22T10:39:55.116Z,977.60
2017-10-22T10:40:55.153Z,977.54
2017-10-22T10:41:55.183Z,977.57
2017-10-22T10:42:55.217Z,977.54
2017-10-22T10:43:55.263Z,977.50
2017-10-22T10:44:55.300Z,977.48
2017-10-22T10:45:55.328Z,977.58
2017-10-22T10:46:55.365Z,977.46
2017-10-22T10:47:55.407Z,977.49
2017-10-22T10:48:55.436Z,977.43
2017-10-22T10:49:55.478Z,977.38
2017-10-22T10:50:55.510Z,977.42
2017-10-22T10:51:55.547Z,977.35
2017-10-22T10:52:55.583Z,977.33
2017-10-22T10:53:55.618Z,977.32
2017-10-22T10:54:55.659Z,977.32
2017-10-22T10:55:55.689Z,977.28
2017-10-22T10:56:55.731Z,977.30
2017-10-22T10:57:55.761Z,977.34
2017-10-22T10:58:55.832Z,977.34
2017-10-22T10:59:55.836Z,977.31
2017-10-22T11:00:55.874Z,977.43
2017-10-22T11:01:55.913Z,977.28
2017-10-22T11:02:55.948Z,977.39
2017-10-22T11:03:55.982Z,977.48
2017-10-22T11:04:56.020Z,977.48
2017-10-22T11:05:56.053Z,977.40
2017-10-22T11:06:56.096Z,977.58
2017-10-22T11:07:56.135Z,977.44
2017-10-22T11:08:56.164Z,977.44
2017-10-22T11:09:56.204Z,977.42
2017-10-22T11:10:56.239Z,977.50
2017-10-22T11:11:56.278Z,977.50
2017-10-22T11:12:56.315Z,977.47
2017-10-22T11:13:56.352Z,977.44
2017-10-22T11:14:56.389Z,977.45
2017-10-22T11:15:56.425Z,977.43
2017-10-22T11:16:56.463Z,977.41
2017-10-22T11:17:56.524Z,977.44
2017-10-22T11:18:56.538Z,977.31
2017-10-22T11:19:56.576Z,977.33
2017-10-22T11:20:56.617Z,977.39
2017-10-22T11:21:56.656Z,977.31
2017-10-22T11:22:56.689Z,977.27
2017-10-22T11:23:56.728Z,977.20
2017-10-22T11:24:56.764Z,977.30
2017-10-22T11:25:56.801Z,977.32
2017-10-22T11:26:56.840Z,977.19
2017-10-22T11:27:56.876Z,977.19
2017-10-22T11:28:56.922Z,977.24
2017-10-22T11:29:56.955Z,977.24
2017-10-22T11:30:56.992Z,977.26
2017-10-22T11:31:57.036Z,977.26
2017-10-22T11:32:57.062Z,977.26
2017-10-22T11:33:57.102Z,977.21
2017-10-22T11:34:57.146Z,977.30
2017-10-22T11:35:57.175Z,977.24
2017-10-22T11:36:57.218Z,977.15
2017-10-22T11:37:57.252Z,977.22
2017-10-22T11:38:57.294Z,977.20
2017-10-22T11:39:57.325Z,977.18
2017-10-22T11:40:57.362Z,977.24
2017-10-22T11:41:57.413Z,977.19
2017-10-22T11:42:57.442Z,977.28
2017-10-22T11:43:57.480Z,977.22
2017-10-22T11:44:57.512Z,977.29
2017-10-22T11:45:57.552Z,977.23
2017-10-22T11:46:57.591Z,977.19
2017-10-22T11:47:57.624Z,977.17
2017-10-22T11:48:57.673Z,977.15
2017-10-22T11:49:57.700Z,977.07
2017-10-22T11:50:57.748Z,977.00
2017-10-22T11:51:57.778Z,977.02
2017-10-22T11:52:57.816Z,977.08
2017-10-22T11:53:57.851Z,977.14
2017-10-22T11:54:57.888Z,977.14
2017-10-22T11:55:57.929Z,977.09
2017-10-22T11:56:57.962Z,977.08
2017-10-22T11:57:58.000Z,977.08
2017-10-22T11:58:58.044Z,977.07
2017-10-22T11:59:58.082Z,977.09
2017-10-22T12:00:58.115Z,977.06
2017-10-22T12:01:58.153Z,977.11
2017-10-22T12:02:58.190Z,977.05
2017-10-22T12:03:58.224Z,977.09
2017-10-22T12:04:58.261Z,977.10
2017-10-22T12:05:58.304Z,977.11
2017-10-22T12:06:58.337Z,977.02
2017-10-22T12:07:58.373Z,977.06
2017-10-22T12:08:58.412Z,977.02
2017-10-22T12:09:58.448Z,977.05
2017-10-22T12:10:58.486Z,977.00
2017-10-22T12:11:58.524Z,977.04
2017-10-22T12:12:58.562Z,977.01
2017-10-22T12:13:58.597Z,977.05
2017-10-22T12:14:58.635Z,976.99
2017-10-22T12:15:58.671Z,977.09
2017-10-22T12:16:58.707Z,977.04
2017-10-22T12:17:58.749Z,976.97
2017-10-22T12:18:58.783Z,977.03
2017-10-22T12:19:58.817Z,976.94
2017-10-22T12:20:58.856Z,977.02
2017-10-22T12:21:58.895Z,977.02
2017-10-22T12:22:58.941Z,976.97
2017-10-22T12:23:58.968Z,976.91
2017-10-22T12:24:59.004Z,976.95
2017-10-22T12:25:59.041Z,976.99
2017-10-22T12:26:59.076Z,976.94
2017-10-22T12:27:59.110Z,976.97
2017-10-22T12:28:59.150Z,976.97